createdAt,value
2024-04-06T00:02:06.109Z,98041.05
2024-04-06T00:04:37.442Z,98033.65
2024-04-06T00:07:05.868Z,98031.38
2024-04-06T00:09:34.236Z,98027.80
2024-04-06T00:12:03.239Z,98026.34
2024-04-06T00:14:32.796Z,98024.85
2024-04-06T00:17:01.124Z,98029.70
2024-04-06T00:19:29.384Z,98029.21
2024-04-06T00:21:57.869Z,98034.00
2024-04-06T00:24:26.097Z,98034.25
2024-04-06T00:26:54.483Z,98031.54
2024-04-06T00:29:23.026Z,98024.00
2024-04-06T00:31:51.533Z,98022.80
2024-04-06T00:34:20.280Z,98019.98
2024-04-06T00:36:48.955Z,98014.98
2024-04-06T00:39:17.461Z,98016.67
2024-04-06T00:41:46.224Z,98020.26
2024-04-06T00:44:15.383Z,98022.10
2024-04-06T00:46:43.694Z,98021.02
2024-04-06T00:49:12.286Z,98021.94
2024-04-06T00:51:40.564Z,98022.52
2024-04-06T00:54:08.824Z,98024.81
2024-04-06T00:56:37.920Z,98019.59
2024-04-06T00:59:06.245Z,98016.63
2024-04-06T01:01:36.068Z,98016.63
2024-04-06T01:04:06.854Z,98018.14
2024-04-06T01:06:35.120Z,98024.96
2024-04-06T01:09:04.371Z,98025.25
2024-04-06T01:11:36.933Z,98020.66
2024-04-06T01:14:05.550Z,98018.54
2024-04-06T01:16:35.285Z,98019.23
2024-04-06T01:19:03.700Z,98018.82
2024-04-06T01:21:32.685Z,98026.35
2024-04-06T01:24:24.311Z,98030.27
2024-04-06T01:26:55.148Z,98037.47
2024-04-06T01:29:27.050Z,98036.13
2024-04-06T01:31:56.649Z,98036.41
2024-04-06T01:34:24.959Z,98033.33
2024-04-06T01:36:53.298Z,98030.52
2024-04-06T01:39:21.668Z,98024.79
2024-04-06T01:41:50.548Z,98024.87
2024-04-06T01:44:18.805Z,98022.30
2024-04-06T01:46:47.204Z,98016.61
2024-04-06T01:49:15.759Z,98009.73
2024-04-06T01:51:46.919Z,98008.92
2024-04-06T01:54:15.564Z,98005.66
2024-04-06T01:56:44.067Z,97993.29
2024-04-06T01:59:12.718Z,97990.45
2024-04-06T02:01:42.531Z,97993.61
2024-04-06T02:04:12.296Z,97987.21
2024-04-06T02:06:40.576Z,97988.42
2024-04-06T02:09:09.832Z,97990.34
2024-04-06T02:11:38.916Z,97995.63
2024-04-06T02:14:07.587Z,97994.08
2024-04-06T02:16:36.745Z,97994.73
2024-04-06T02:19:05.330Z,97989.81
2024-04-06T02:21:33.758Z,97987.88
2024-04-06T02:24:02.292Z,97988.19
2024-04-06T02:26:30.779Z,97986.43
2024-04-06T02:28:59.209Z,97985.77
2024-04-06T02:31:28.456Z,97990.33
2024-04-06T02:33:57.120Z,97992.00
2024-04-06T02:36:25.441Z,97991.59
2024-04-06T02:38:53.938Z,97988.28
2024-04-06T02:41:22.180Z,97976.65
2024-04-06T02:43:51.345Z,97973.24
2024-04-06T02:46:19.541Z,97973.54
2024-04-06T02:48:49.015Z,97972.14
2024-04-06T02:51:17.637Z,97976.16
2024-04-06T02:53:45.782Z,97982.95
2024-04-06T02:56:14.106Z,97987.03
2024-04-06T02:58:42.013Z,97984.25
2024-04-06T03:01:10.279Z,97977.80
2024-04-06T03:03:38.783Z,97967.89
2024-04-06T03:06:07.496Z,97962.52
2024-04-06T03:08:35.699Z,97965.35
2024-04-06T03:11:04.072Z,97973.81
2024-04-06T03:13:32.177Z,97972.09
2024-04-06T03:16:00.630Z,97979.05
2024-04-06T03:18:28.936Z,97979.40
2024-04-06T03:20:57.298Z,97973.06
2024-04-06T03:23:25.722Z,97964.54
2024-04-06T03:25:53.939Z,97965.03
2024-04-06T03:28:23.131Z,97969.35
2024-04-06T03:30:51.255Z,97970.14
2024-04-06T03:33:19.517Z,97965.84
2024-04-06T03:35:47.996Z,97971.10
2024-04-06T03:38:16.289Z,97975.12
2024-04-06T03:40:44.560Z,97977.55
2024-04-06T03:43:12.878Z,97976.64
2024-04-06T03:45:41.741Z,97979.33
2024-04-06T03:48:09.799Z,97981.40
2024-04-06T03:50:41.182Z,97983.80
2024-04-06T03:53:11.478Z,97979.55
2024-04-06T03:55:39.841Z,97978.67
2024-04-06T03:58:08.404Z,97980.17
2024-04-06T04:00:37.382Z,97985.10
2024-04-06T04:03:05.796Z,97989.94
2024-04-06T04:05:34.680Z,97990.20
2024-04-06T04:08:03.054Z,97990.00
2024-04-06T04:10:33.471Z,97990.36
2024-04-06T04:13:02.241Z,97991.48
2024-04-06T04:15:31.035Z,97993.38
2024-04-06T04:17:59.938Z,97993.71
2024-04-06T04:20:28.956Z,97995.65
2024-04-06T04:22:57.522Z,97998.55
2024-04-06T04:25:26.072Z,98002.98
2024-04-06T04:27:58.898Z,98003.42
2024-04-06T04:30:29.320Z,98008.89
2024-04-06T04:32:58.096Z,98011.77
2024-04-06T04:35:27.581Z,98009.58
2024-04-06T04:37:56.489Z,98013.35
2024-04-06T04:40:25.765Z,98012.55
2024-04-06T04:42:54.463Z,98015.79
2024-04-06T04:45:23.529Z,98019.40
2024-04-06T04:47:52.021Z,98026.44
2024-04-06T04:50:20.711Z,98024.69
2024-04-06T04:52:49.325Z,98019.72
2024-04-06T04:55:18.082Z,98019.60
2024-04-06T04:57:47.205Z,98019.33
2024-04-06T05:00:15.502Z,98025.73
2024-04-06T05:02:43.857Z,98027.64
2024-04-06T05:05:12.904Z,98027.67
2024-04-06T05:07:42.408Z,98023.85
2024-04-06T05:10:11.232Z,98027.65
2024-04-06T05:12:39.990Z,98023.58
2024-04-06T05:15:08.897Z,98016.08
2024-04-06T05:17:38.904Z,98011.66
2024-04-06T05:20:07.616Z,98003.83
2024-04-06T05:22:36.506Z,98001.26
2024-04-06T05:25:07.028Z,97999.25
2024-04-06T05:27:37.808Z,98007.95
2024-04-06T05:30:08.086Z,98011.36
2024-04-06T05:32:36.844Z,98008.46
2024-04-06T05:35:07.391Z,98012.63
2024-04-06T05:37:35.797Z,98017.06
2024-04-06T05:40:04.981Z,98009.29
2024-04-06T05:42:33.425Z,98002.67
2024-04-06T05:45:02.245Z,98001.66
2024-04-06T05:47:32.175Z,97996.55
2024-04-06T05:50:00.643Z,97996.21
2024-04-06T05:52:29.648Z,98001.23
2024-04-06T05:55:00.727Z,98000.00
2024-04-06T05:57:29.813Z,97999.45
2024-04-06T05:59:58.328Z,97997.52
2024-04-06T06:02:26.899Z,97986.46
2024-04-06T06:04:55.196Z,97989.27
2024-04-06T06:07:23.387Z,97996.62
2024-04-06T06:09:51.879Z,97997.02
2024-04-06T06:12:20.755Z,97997.11
2024-04-06T06:14:49.163Z,97994.55
2024-04-06T06:17:20.708Z,97996.86
2024-04-06T06:19:49.502Z,97993.33
2024-04-06T06:22:18.002Z,97991.23
2024-04-06T06:24:46.316Z,97986.80
2024-04-06T06:27:14.579Z,97984.38
2024-04-06T06:29:42.892Z,97985.48
2024-04-06T06:32:11.452Z,97991.27
2024-04-06T06:34:40.745Z,97992.65
2024-04-06T06:42:13.095Z,97992.27
2024-04-06T06:44:41.539Z,97997.29
2024-04-06T06:47:10.448Z,97994.61
2024-04-06T06:49:39.851Z,97999.84
2024-04-06T06:52:08.597Z,98001.86
2024-04-06T06:54:37.233Z,98001.98
2024-04-06T06:57:06.087Z,97999.84
2024-04-06T07:02:06.914Z,97994.20
2024-04-06T07:04:37.561Z,97990.40
2024-04-06T07:07:08.291Z,97996.80
2024-04-06T07:09:37.182Z,98002.90
2024-04-06T07:12:08.942Z,98003.23
2024-04-06T07:14:37.624Z,98005.31
2024-04-06T07:17:06.090Z,98002.96
2024-04-06T07:19:34.912Z,97999.77
2024-04-06T07:22:03.966Z,98000.80
2024-04-06T07:24:34.310Z,98005.33
2024-04-06T07:27:03.238Z,98006.00
2024-04-06T07:29:32.085Z,98002.11
2024-04-06T07:32:04.048Z,97998.27
2024-04-06T07:34:32.423Z,97997.65
2024-04-06T07:37:00.743Z,97998.52
2024-04-06T07:39:29.410Z,97995.14
2024-04-06T07:41:57.971Z,97985.27
2024-04-06T07:44:26.660Z,97977.66
2024-04-06T07:46:55.426Z,97973.14
2024-04-06T07:49:24.111Z,97972.63
2024-04-06T07:51:52.723Z,97968.41
2024-04-06T07:54:21.108Z,97963.88
2024-04-06T07:56:49.785Z,97966.17
2024-04-06T07:59:18.885Z,97958.30
2024-04-06T08:01:49.728Z,97961.19
2024-04-06T08:04:18.313Z,97961.39
2024-04-06T08:06:47.294Z,97962.73
2024-04-06T08:09:15.888Z,97965.92
2024-04-06T08:11:44.566Z,97969.48
2024-04-06T08:14:20.892Z,97963.91
2024-04-06T08:16:53.810Z,97965.09
2024-04-06T08:19:23.179Z,97963.85
2024-04-06T08:21:52.326Z,97968.50
2024-04-06T08:24:21.262Z,97968.23
2024-04-06T08:26:50.934Z,97962.16
2024-04-06T08:29:19.987Z,97961.67
2024-04-06T08:31:48.400Z,97962.38
2024-04-06T08:34:17.342Z,97959.30
2024-04-06T08:36:46.173Z,97958.21
2024-04-06T08:39:15.062Z,97952.90
2024-04-06T08:41:46.598Z,97949.04
2024-04-06T08:44:19.733Z,97950.50
2024-04-06T08:46:50.005Z,97944.13
2024-04-06T08:49:18.988Z,97943.70
2024-04-06T08:51:50.068Z,97943.13
2024-04-06T08:54:18.627Z,97942.41
2024-04-06T08:56:47.089Z,97941.15
2024-04-06T08:59:15.849Z,97932.53
2024-04-06T09:01:45.692Z,97932.15
2024-04-06T09:04:14.588Z,97929.64
2024-04-06T09:06:45.927Z,97930.42
2024-04-06T09:09:14.990Z,97924.81
2024-04-06T09:11:45.759Z,97921.73
2024-04-06T09:14:15.640Z,97925.85
2024-04-06T09:16:45.560Z,97923.45
2024-04-06T09:19:14.164Z,97919.31
2024-04-06T09:21:42.956Z,97918.83
2024-04-06T09:24:13.755Z,97918.73
2024-04-06T09:26:42.142Z,97923.69
2024-04-06T09:29:10.534Z,97926.90
2024-04-06T09:31:48.269Z,97933.77
2024-04-06T09:34:16.790Z,97938.92
2024-04-06T09:36:48.713Z,97947.36
2024-04-06T09:39:18.619Z,97965.80
2024-04-06T09:41:47.822Z,97972.33
2024-04-06T09:44:16.311Z,97987.23
2024-04-06T09:46:46.746Z,97994.95
2024-04-06T09:49:15.603Z,98017.36
2024-04-06T09:51:44.320Z,98024.35
2024-04-06T09:54:13.059Z,98035.50
2024-04-06T09:56:42.874Z,98044.98
2024-04-06T09:59:25.196Z,98047.40
2024-04-06T10:02:00.909Z,98054.10
2024-04-06T10:04:36.586Z,98046.10
2024-04-06T10:07:06.834Z,98048.86
2024-04-06T10:09:38.970Z,98053.91
2024-04-06T10:12:09.718Z,98052.88
2024-04-06T10:14:47.492Z,98048.34
2024-04-06T10:17:18.049Z,98041.84
2024-04-06T10:19:47.828Z,98043.52
2024-04-06T10:22:26.475Z,98040.06
2024-04-06T10:25:04.370Z,98040.85
2024-04-06T10:27:39.170Z,98039.87
2024-04-06T10:30:09.806Z,98037.45
2024-04-06T10:32:39.596Z,98036.16
2024-04-06T10:35:08.423Z,98031.94
2024-04-06T10:37:37.829Z,98031.38
2024-04-06T10:40:07.242Z,98029.77
2024-04-06T10:42:42.860Z,98026.98
2024-04-06T10:45:13.515Z,98027.15
2024-04-06T10:47:42.084Z,98023.81
2024-04-06T10:50:11.408Z,98018.66
2024-04-06T10:52:44.362Z,98021.33
2024-04-06T10:55:21.062Z,98020.45
2024-04-06T10:57:49.761Z,98019.56
2024-04-06T11:00:19.502Z,98018.84
2024-04-06T11:02:48.774Z,98014.52
2024-04-06T11:05:20.043Z,98013.52
2024-04-06T11:07:48.650Z,98010.76
2024-04-06T11:10:17.644Z,98007.88
2024-04-06T11:12:46.533Z,98006.84
2024-04-06T11:15:16.441Z,98000.94
2024-04-06T11:17:44.930Z,97996.48
2024-04-06T11:20:14.349Z,97993.84
2024-04-06T11:22:44.219Z,97984.29
2024-04-06T11:25:17.547Z,97984.05
2024-04-06T11:27:53.100Z,97976.52
2024-04-06T11:30:22.227Z,97971.45
2024-04-06T11:32:52.201Z,97964.17
2024-04-06T11:35:20.720Z,97954.61
2024-04-06T11:37:49.607Z,97948.35
2024-04-06T11:40:19.729Z,97942.84
2024-04-06T11:42:49.010Z,97936.88
2024-04-06T11:45:18.023Z,97925.61
2024-04-06T11:47:48.607Z,97917.36
2024-04-06T11:50:19.356Z,97909.55
2024-04-06T11:52:48.112Z,97902.25
2024-04-06T11:55:16.434Z,97902.14
2024-04-06T11:57:45.969Z,97897.51
2024-04-06T12:00:18.041Z,97894.08
2024-04-06T12:02:47.386Z,97894.00
2024-04-06T12:05:16.242Z,97889.14
2024-04-06T12:07:45.153Z,97885.59
2024-04-06T12:10:14.020Z,97884.48
2024-04-06T12:12:43.788Z,97880.79
2024-04-06T12:15:14.212Z,97882.02
2024-04-06T12:17:43.365Z,97884.13
2024-04-06T12:20:13.652Z,97882.95
2024-04-06T12:22:42.084Z,97882.05
2024-04-06T12:25:10.983Z,97884.88
2024-04-06T12:27:43.653Z,97883.41
2024-04-06T12:30:16.135Z,97881.04
2024-04-06T12:32:45.466Z,97879.59
2024-04-06T12:35:13.815Z,97876.08
2024-04-06T12:37:44.884Z,97874.17
2024-04-06T12:40:13.072Z,97872.27
2024-04-06T12:42:41.339Z,97872.08
2024-04-06T12:45:10.244Z,97876.30
2024-04-06T12:47:38.543Z,97873.52
2024-04-06T12:50:08.205Z,97872.79
2024-04-06T12:52:38.551Z,97867.86
2024-04-06T12:55:08.018Z,97867.77
2024-04-06T12:57:44.084Z,97862.35
2024-04-06T13:00:15.401Z,97858.76
2024-04-06T13:02:44.766Z,97843.02
2024-04-06T13:05:13.337Z,97842.56
2024-04-06T13:07:41.960Z,97844.45
2024-04-06T13:10:10.332Z,97841.45
2024-04-06T13:12:39.686Z,97841.13
2024-04-06T13:15:14.721Z,97843.71
2024-04-06T13:17:46.928Z,97845.88
2024-04-06T13:20:18.361Z,97843.73
2024-04-06T13:22:47.588Z,97845.58
2024-04-06T13:25:16.413Z,97846.05
2024-04-06T13:27:44.997Z,97846.48
2024-04-06T13:30:14.242Z,97849.88
2024-04-06T13:32:43.022Z,97846.22
2024-04-06T13:35:11.533Z,97845.96
2024-04-06T13:37:40.479Z,97847.89
2024-04-06T13:40:11.801Z,97845.80
2024-04-06T13:42:42.137Z,97840.41
2024-04-06T13:45:17.294Z,97838.42
2024-04-06T13:47:46.434Z,97833.58
2024-04-06T13:50:15.294Z,97833.05
2024-04-06T13:52:43.856Z,97825.17
2024-04-06T13:55:13.040Z,97828.89
2024-04-06T13:57:47.370Z,97826.53
2024-04-06T14:00:17.822Z,97831.49
2024-04-06T14:02:46.358Z,97821.45
2024-04-06T14:05:14.697Z,97812.20
2024-04-06T14:07:44.271Z,97808.73
2024-04-06T14:10:13.505Z,97806.08
2024-04-06T14:12:42.293Z,97802.23
2024-04-06T14:15:11.368Z,97800.85
2024-04-06T14:17:42.944Z,97799.79
2024-04-06T14:20:11.729Z,97804.80
2024-04-06T14:22:41.179Z,97809.71
2024-04-06T14:25:09.942Z,97808.11
2024-04-06T14:27:38.877Z,97805.25
2024-04-06T14:30:26.340Z,97798.64
2024-04-06T14:32:54.461Z,97799.23
2024-04-06T14:35:23.277Z,97795.95
2024-04-06T14:37:51.726Z,97804.08
2024-04-06T14:40:20.105Z,97802.61
2024-04-06T14:42:50.204Z,97802.86
2024-04-06T14:45:18.863Z,97810.09
2024-04-06T14:47:47.569Z,97804.78
2024-04-06T14:50:15.882Z,97801.35
2024-04-06T14:52:44.068Z,97797.84
2024-04-06T14:55:13.183Z,97789.86
2024-04-06T14:57:42.662Z,97790.73
2024-04-06T15:00:16.976Z,97789.01
2024-04-06T15:02:45.669Z,97791.64
2024-04-06T15:05:14.550Z,97797.10
2024-04-06T15:07:43.330Z,97798.61
2024-04-06T15:10:12.552Z,97797.20
2024-04-06T15:12:40.820Z,97791.94
2024-04-06T15:15:09.465Z,97792.95
2024-04-06T15:17:37.873Z,97794.44
2024-04-06T15:20:12.290Z,97795.55
2024-04-06T15:22:42.358Z,97792.83
2024-04-06T15:25:10.692Z,97793.14
2024-04-06T15:27:40.378Z,97798.11
2024-04-06T15:30:09.599Z,97799.50
2024-04-06T15:32:39.644Z,97796.41
2024-04-06T15:35:09.585Z,97800.16
2024-04-06T15:37:38.623Z,97800.86
2024-04-06T15:40:09.290Z,97806.75
2024-04-06T15:42:40.794Z,97807.52
2024-04-06T15:45:09.332Z,97816.59
2024-04-06T15:47:37.817Z,97821.72
2024-04-06T15:50:10.502Z,97829.30
2024-04-06T15:52:41.330Z,97831.27
2024-04-06T15:55:09.780Z,97833.16
2024-04-06T15:57:38.300Z,97834.52
2024-04-06T16:00:07.826Z,97841.81
2024-04-06T16:02:36.326Z,97842.44
2024-04-06T16:05:04.906Z,97845.83
2024-04-06T16:07:33.695Z,97839.58
2024-04-06T16:10:02.159Z,97839.89
2024-04-06T16:12:30.488Z,97845.98
2024-04-06T16:14:59.077Z,97849.77
2024-04-06T16:17:27.171Z,97852.59
2024-04-06T16:19:55.832Z,97847.66
2024-04-06T16:22:24.538Z,97851.11
2024-04-06T16:24:54.912Z,97854.68
2024-04-06T16:27:23.539Z,97853.90
2024-04-06T16:29:52.018Z,97860.15
2024-04-06T16:32:20.583Z,97862.58
2024-04-06T16:34:48.631Z,97865.23
2024-04-06T16:37:17.052Z,97864.42
2024-04-06T16:39:45.772Z,97866.57
2024-04-06T16:42:14.571Z,97870.88
2024-04-06T16:44:43.373Z,97872.73
2024-04-06T16:47:11.632Z,97871.80
2024-04-06T16:49:40.313Z,97870.98
2024-04-06T16:52:08.842Z,97867.65
2024-04-06T16:54:37.705Z,97861.42
2024-04-06T16:57:11.534Z,97862.20
2024-04-06T16:59:41.337Z,97860.88
2024-04-06T17:02:11.585Z,97865.02
2024-04-06T17:04:40.059Z,97867.40
2024-04-06T17:07:08.538Z,97867.33
2024-04-06T17:09:37.166Z,97868.42
2024-04-06T17:12:09.968Z,97869.29
2024-04-06T17:14:43.348Z,97859.17
2024-04-06T17:17:12.288Z,97866.00
2024-04-06T17:19:40.460Z,97862.77
2024-04-06T17:22:11.685Z,97859.16
2024-04-06T17:24:46.493Z,97867.98
2024-04-06T17:27:15.801Z,97873.55
2024-04-06T17:29:44.252Z,97878.92
2024-04-06T17:32:12.736Z,97888.52
2024-04-06T17:34:41.006Z,97892.73
2024-04-06T17:37:09.898Z,97897.91
2024-04-06T17:39:38.754Z,97900.80
2024-04-06T17:42:07.889Z,97898.96
2024-04-06T17:44:36.433Z,97897.47
2024-04-06T17:47:04.908Z,97903.56
2024-04-06T17:49:34.199Z,97904.40
2024-04-06T17:52:05.395Z,97910.36
2024-04-06T17:54:34.957Z,97912.00
2024-04-06T17:57:03.383Z,97915.14
2024-04-06T17:59:31.797Z,97916.95
2024-04-06T18:02:00.033Z,97920.48
2024-04-06T18:04:28.637Z,97920.19
2024-04-06T18:06:56.954Z,97923.60
2024-04-06T18:09:25.571Z,97922.25
2024-04-06T18:11:56.968Z,97924.37
2024-04-06T18:14:27.851Z,97931.06
2024-04-06T18:16:56.152Z,97933.33
2024-04-06T18:19:24.410Z,97938.73
2024-04-06T18:21:53.598Z,97939.40
2024-04-06T18:24:22.026Z,97943.71
2024-04-06T18:26:50.950Z,97950.00
2024-04-06T18:29:19.353Z,97949.86
2024-04-06T18:31:47.926Z,97947.29
2024-04-06T18:34:18.697Z,97949.73
2024-04-06T18:36:47.257Z,97950.93
2024-04-06T18:39:15.831Z,97945.29
2024-04-06T18:41:44.479Z,97944.39
2024-04-06T18:44:13.026Z,97947.95
2024-04-06T18:46:41.614Z,97947.16
2024-04-06T18:49:11.025Z,97941.73
2024-04-06T18:51:39.577Z,97945.82
2024-04-06T18:54:20.304Z,97944.27
2024-04-06T18:56:55.707Z,97941.02
2024-04-06T18:59:25.137Z,97940.10
2024-04-06T19:01:54.148Z,97939.66
2024-04-06T19:04:22.785Z,97942.09
2024-04-06T19:06:51.759Z,97940.33
2024-04-06T19:09:20.973Z,97936.61
2024-04-06T19:11:49.544Z,97939.09
2024-04-06T19:14:19.139Z,97944.02
2024-04-06T19:16:47.418Z,97949.92
2024-04-06T19:19:16.222Z,97950.56
2024-04-06T19:21:46.376Z,97950.63
2024-04-06T19:24:15.100Z,97953.55
2024-04-06T19:26:49.886Z,97949.61
2024-04-06T19:29:20.298Z,97948.37
2024-04-06T19:31:48.421Z,97948.51
2024-04-06T19:34:16.551Z,97953.06
2024-04-06T19:36:44.728Z,97951.08
2024-04-06T19:39:13.101Z,97949.41
2024-04-06T19:41:41.342Z,97946.63
2024-04-06T19:44:13.697Z,97941.44
2024-04-06T19:46:43.837Z,97943.55
2024-04-06T19:49:12.794Z,97939.77
2024-04-06T19:51:41.286Z,97939.63
2024-04-06T19:54:10.175Z,97938.15
2024-04-06T19:56:39.755Z,97939.45
2024-04-06T19:59:07.879Z,97943.59
2024-04-06T20:01:36.396Z,97944.63
2024-04-06T20:04:05.248Z,97945.13
2024-04-06T20:06:34.113Z,97954.06
2024-04-06T20:09:10.884Z,97955.89
2024-04-06T20:11:39.469Z,97959.11
2024-04-06T20:14:07.857Z,97956.87
2024-04-06T20:16:36.014Z,97963.47
2024-04-06T20:19:04.311Z,97963.73
2024-04-06T20:21:33.865Z,97961.88
2024-04-06T20:24:20.540Z,97966.84
2024-04-06T20:26:48.640Z,97968.90
2024-04-06T20:29:16.976Z,97981.48
2024-04-06T20:31:45.395Z,97986.94
2024-04-06T20:34:13.566Z,97985.48
2024-04-06T20:36:43.822Z,97986.55
2024-04-06T20:39:15.272Z,97982.42
2024-04-06T20:41:43.375Z,97981.61
2024-04-06T20:44:14.085Z,97983.83
2024-04-06T20:46:42.318Z,97984.55
2024-04-06T20:49:10.693Z,97987.03
2024-04-06T20:51:39.554Z,97983.73
2024-04-06T20:54:07.812Z,97983.84
2024-04-06T20:56:36.004Z,97992.03
2024-04-06T20:59:04.280Z,97989.58
2024-04-06T21:01:33.182Z,97992.80
2024-04-06T21:04:02.640Z,97990.38
2024-04-06T21:06:32.771Z,97991.66
2024-04-06T21:09:01.245Z,97993.02
2024-04-06T21:11:29.784Z,97995.55
2024-04-06T21:13:58.223Z,97998.79
2024-04-06T21:16:26.738Z,97996.03
2024-04-06T21:18:57.096Z,97995.42
2024-04-06T21:21:25.849Z,97996.06
2024-04-06T21:23:54.298Z,97991.13
2024-04-06T21:26:22.300Z,97993.98
2024-04-06T21:28:51.025Z,97996.95
2024-04-06T21:31:19.463Z,97994.31
2024-04-06T21:33:47.910Z,97993.27
2024-04-06T21:36:16.474Z,97991.23
2024-04-06T21:38:45.008Z,97995.34
2024-04-06T21:41:14.170Z,97993.54
2024-04-06T21:43:47.118Z,97991.27
2024-04-06T21:46:20.029Z,97991.90
2024-04-06T21:48:53.569Z,97993.20
2024-04-06T21:51:22.043Z,97994.30
2024-04-06T21:53:50.280Z,97997.75
2024-04-06T21:56:18.761Z,97996.02
2024-04-06T21:58:47.445Z,97993.91
2024-04-06T22:01:15.828Z,97992.45
2024-04-06T22:03:44.648Z,97990.90
2024-04-06T22:06:13.112Z,97989.23
2024-04-06T22:08:41.510Z,97994.23
2024-04-06T22:11:11.583Z,97992.77
2024-04-06T22:13:41.363Z,97991.04
2024-04-06T22:16:11.098Z,97990.68
2024-04-06T22:18:39.618Z,97994.89
2024-04-06T22:21:08.275Z,97992.69
2024-04-06T22:23:37.329Z,97990.73
2024-04-06T22:26:05.643Z,97990.09
2024-04-06T22:28:33.929Z,97985.36
2024-04-06T22:31:02.405Z,97981.88
2024-04-06T22:33:30.831Z,97982.20
2024-04-06T22:35:59.207Z,97978.79
2024-04-06T22:38:27.929Z,97972.95
2024-04-06T22:40:56.769Z,97970.55
2024-04-06T22:43:25.195Z,97976.91
2024-04-06T22:45:53.798Z,97975.69
2024-04-06T22:48:22.324Z,97978.09
2024-04-06T22:50:50.951Z,97982.48
2024-04-06T22:53:19.579Z,97978.70
2024-04-06T22:55:49.184Z,97982.11
2024-04-06T22:58:17.547Z,97981.59
2024-04-06T23:00:46.129Z,97992.58
2024-04-06T23:03:14.886Z,97993.41
2024-04-06T23:05:44.183Z,97992.25
2024-04-06T23:08:12.720Z,97992.23
2024-04-06T23:10:41.069Z,97988.83
2024-04-06T23:13:09.466Z,97986.69
2024-04-06T23:15:38.313Z,97983.52
2024-04-06T23:18:06.792Z,97979.74
2024-04-06T23:20:37.463Z,97980.31
2024-04-06T23:23:06.019Z,97977.54
2024-04-06T23:25:35.212Z,97978.27
2024-04-06T23:28:03.726Z,97979.42
2024-04-06T23:30:32.318Z,97976.98
2024-04-06T23:33:00.993Z,97974.73
2024-04-06T23:35:29.767Z,97976.23
2024-04-06T23:37:58.218Z,97977.77
2024-04-06T23:40:27.429Z,97977.42
2024-04-06T23:42:55.941Z,97982.21
2024-04-06T23:45:24.569Z,97979.40
2024-04-06T23:47:53.001Z,97981.37
2024-04-06T23:50:21.257Z,97982.86
2024-04-06T23:52:49.578Z,97982.36
2024-04-06T23:55:17.953Z,97984.38
2024-04-06T23:57:46.589Z,97988.13
